Hauptseite
METAR-TAF:

METAR-TAF

Flughäfen :

Flughafen Larnaka

Larnaka, Zypern

Breite: 34-53N, Länge: 033-38E, Höhe: 2 m

Beobachtung

Neuester Wetterbericht von vor 22 Minuten, um 05:30 UTC
Wind 5 kt aus Nord/Nordwest
Temperatur 20°C
Luftfeuchtigkeit 73%
Luftdruck 1018 hPa
Sichtweite 10 km oder mehr
keine Wolken unter 1500 m und keine Kumulonimbus oder Gewitterwolken

METAR: LCLK 120530Z 33005KT CAVOK 20/15 Q1018 NOSIG

Zeit: 07:52 (05:52 UTC)

Prognose

Neuester Wetterbericht von vor 22 Minuten, um 05:30 UTC
Gültige Prognose vom 12 um 06 UTC bis 13 um 06 UTC
Wind 14 kt aus Ost/Nordost
Sichtweite 10 km oder mehr
keine Wolken unter 1500 m und keine Kumulonimbus oder Gewitterwolken
Übergehend zu
vom 12 um 20 UTC bis 12 um 23 UTC
Wind 9 kt aus Nord

TAF: LCLK 120530Z 1206/1306 06014KT CAVOK BECMG 1220/1223 35009KT

Wetterbeobachtungen und Prognosen von mehr als 4000 Flughäfen (METAR und TAF Bericht).

Die verfügbaren Stationen werden durch gelbe und rote Markierungen auf der Karte dargestellt.

Führen Sie die Maus auf sie, um den Namen der Station zu sehen.

Darauf klicken, um die Beobachtung von Wetterbeobachtungen und Prognosen zu sehen.

Um die Karte zu ändern : klicken Sie auf den grünen Tasten mit einem schwarzen Kreuz Zum Vergrößern, auf den grünen Button mit einem Gedankenstrich zu verkleinern, oder auf die grünen Pfeile für benachbarte Karten.


METAR-TAF: